This is the latest recevied weather packets stored in our database for station/object KD4UFD. If no packets are shown the sender has not sent any weather packets the latest 10 day(s).
| Time | Temp. | Humidity | Pressure | Rain* | Wind** | Luminosity | Snow |
|---|---|---|---|---|---|---|---|
| 1778189014 | 19.44° C | 62% | 1012.9 hPa | 0 mm | - | 508 W/m² | - |
| 1778188711 | 18.89° C | 63% | 1012.7 hPa | 0 mm | - | 525 W/m² | - |
| 1778188407 | 19.44° C | 59% | 1012.6 hPa | 0 mm | - | 393 W/m² | - |
| 1778188104 | 18.89° C | 66% | 1012.6 hPa | 0 mm | - | 533 W/m² | - |
| 1778187802 | 19.44° C | 64% | 1012.7 hPa | 0 mm | - | 476 W/m² | - |
| 1778187498 | 18.89° C | 63% | 1012.5 hPa | 0 mm | - | 488 W/m² | - |
| 1778187195 | 18.89° C | 63% | 1012.6 hPa | 0 mm | - | 580 W/m² | - |
| 1778186890 | 18.33° C | 64% | 1012.5 hPa | 0 mm | - | 570 W/m² | - |
| 1778186588 | 17.78° C | 69% | 1012.7 hPa | 0 mm | - | 568 W/m² | - |
| 1778186287 | 17.22° C | 67% | 1012.6 hPa | 0 mm | - | 614 W/m² | - |
| 1778185984 | 17.22° C | 66% | 1012.5 hPa | 0 mm | - | 193 W/m² | - |
| 1778185680 | 17.22° C | 69% | 1012.6 hPa | 0 mm | - | 169 W/m² | - |
| 1778185376 | 17.22° C | 68% | 1012.8 hPa | 0 mm | - | 580 W/m² | - |
| 1778185071 | 17.22° C | 68% | 1013 hPa | 0 mm | - | 681 W/m² | - |
| 1778184768 | 16.67° C | 68% | 1012.9 hPa | 0 mm | - | 274 W/m² | - |
| 1778184464 | 17.22° C | 67% | 1012.8 hPa | 0 mm | - | 206 W/m² | - |
| 1778184160 | 17.22° C | 68% | 1012.9 hPa | 0 mm | - | 219 W/m² | - |
| 1778183856 | 17.22° C | 66% | 1013.2 hPa | 0 mm | - | 539 W/m² | - |
| 1778183554 | 16.67° C | 67% | 1013 hPa | 0 mm | - | 365 W/m² | - |
| 1778183251 | 17.22° C | 67% | 1012.9 hPa | 0 mm | - | 338 W/m² | - |
| 1778182947 | 16.67° C | 68% | 1013.2 hPa | 0 mm | - | 383 W/m² | - |
| 1778182644 | 17.22° C | 68% | 1013.2 hPa | 0 mm | - | 381 W/m² | - |
| 1778182340 | 16.67° C | 68% | 1013.2 hPa | 0 mm | - | 508 W/m² | - |
| 1778182037 | 16.67° C | 69% | 1013.3 hPa | 0 mm | - | 277 W/m² | - |
| 1778181734 | 16.67° C | 69% | 1013.3 hPa | 0 mm | - | 362 W/m² | - |
* Rain latest hour (hover to see other rain measurements)
** Current wind speed in m/s (hover to see current wind gust speed)